Hansen, Wisconsin
Current Conditions -  °F | °C
As of 12:54 PM on Friday 21 Nov 2014 (Local Time) from KISW Reporting Station
Clear Clear  
Wind Chill: 14°   Ceiling: Unl
Heat Index: 24°   Visibility: NA
Dew Point:   Wind: 10mph
Humidity: 37%   Direction: 200°SSW
Pressure: 30.24"   Gusts: NA
Location:  44.4583°N, 90.0009°W
Report Text: KISW 211854Z AUTO 20009KT CLR M04/M17 A3024 RMK AO2 SLP265 T10441172 $
Loading
Personal Weather Stations






























Interactive Weather Map New forecast layout! Learn more

10-Day Weather Forecast

Advertisements
Track Severe Weather on mobile